Portada
METAR-TAF:

METAR-TAF

Aeroports :

Aeroport Internacional Reina Beatrix

Aruba, Aruba

latitud: 12-30N, longitud: 070-01W, altitud: 18 m

Observació

L'informe es va fer fa 45 minuts, a les 18:00 UTC
Vent 11 kt del Est, variant entre Nord-Est i Est/Sud-Est
Temperatura 31°C
Humitat 63%
Pressió 1010 hPa
Visibilitat 10 km o més
Escasses núvols a una alçada de 2700 ft

METAR: TNCA 211800Z 09011KT 050V110 9999 FEW027 31/23 Q1010 NOSIG

Hora: 14:45 (18:45 UTC)

Pronòstic

L'informe es va fer fa 45 minuts, a les 18:00 UTC
Pronòstic vàlid del 21 a les 18 UTC al 22 a les 18 UTC
Vent 10 kt del Est/Nord-Est
Visibilitat 10 km o més
Núvols disperses a una alçada de 2000 ft
Probabilitat 40% :
Temporalment
l' 21 a les 18 UTC al 22 a les 06 UTC
Visibilitat: 5000 m
Cel ennuvolat a una alçada de 1500 ft
xàfecs de pluja
Temporalment
l' 21 a les 18 UTC al 22 a les 18 UTC
Vent 5 kt amb direcció variable

TAF: TNCA 211800Z 2118/2218 07010KT 9999 SCT020 PROB40 TEMPO 2118/2206 5000 SHRA BKN015 TEMPO 2118/2218 VRB05KT

Observacions i pronòstics meteorològics de més de 4000 aeroports (METAR i TAF).

Les estacions disponibles són els punts grocs i vermells al mapa.

Posi el ratolí al punt desitjat per veure el nom de l'estació.

Feu clic per veure les observacions i els pronòstics meteorològics.

Per canviar el mapa: feu clic els botons verds amb una creu de color negre per apropar; al botó verd amb un guió per allunyar la imatge; o en les fletxes verdes per a mapes adjacents.


METAR-TAF: